createdAt,value
2023-04-27T00:03:24.517Z,3.50
2023-04-27T00:05:52.131Z,3.63
2023-04-27T00:08:19.434Z,3.47
2023-04-27T00:10:49.086Z,3.40
2023-04-27T00:13:16.461Z,3.70
2023-04-27T00:15:43.714Z,3.20
2023-04-27T00:18:17.215Z,3.83
2023-04-27T00:20:48.436Z,3.57
2023-04-27T00:23:20.784Z,3.97
2023-04-27T00:25:48.108Z,3.83
2023-04-27T00:28:15.385Z,4.27
2023-04-27T00:30:42.610Z,4.00
2023-04-27T00:35:47.166Z,3.83
2023-04-27T00:38:14.909Z,4.20
2023-04-27T00:40:42.310Z,5.00
2023-04-27T00:43:09.627Z,4.63
2023-04-27T00:45:39.852Z,4.67
2023-04-27T00:48:25.882Z,4.47
2023-04-27T00:50:54.909Z,4.50
2023-04-27T00:53:22.218Z,4.73
2023-04-27T00:55:50.187Z,4.27
2023-04-27T00:58:17.386Z,4.10
2023-04-27T01:00:57.074Z,4.63
2023-04-27T01:06:01.834Z,4.77
2023-04-27T01:08:29.439Z,4.30
2023-04-27T01:10:56.726Z,3.97
2023-04-27T01:13:24.040Z,4.60
2023-04-27T01:15:51.276Z,4.70
2023-04-27T01:18:23.814Z,4.97
2023-04-27T01:20:53.843Z,4.30
2023-04-27T01:23:23.182Z,5.53
2023-04-27T01:25:50.433Z,5.17
2023-04-27T01:28:22.482Z,4.83
2023-04-27T01:30:56.489Z,5.10
2023-04-27T01:55:47.774Z,4.27
2023-04-27T01:58:16.452Z,4.63
2023-04-27T02:00:52.912Z,5.43
2023-04-27T02:03:32.695Z,5.00
2023-04-27T02:06:00.155Z,4.63
2023-04-27T02:08:27.594Z,5.63
2023-04-27T02:10:56.254Z,4.57
2023-04-27T02:13:24.178Z,4.10
2023-04-27T02:15:51.528Z,6.03
2023-04-27T02:18:22.008Z,4.77
2023-04-27T02:20:49.315Z,4.73
2023-04-27T02:23:16.569Z,4.53
2023-04-27T02:25:43.924Z,4.63
2023-04-27T02:28:19.581Z,4.30
2023-04-27T02:30:57.448Z,4.07
2023-04-27T02:33:30.270Z,4.87
2023-04-27T02:35:57.886Z,4.93
2023-04-27T02:38:25.158Z,4.90
2023-04-27T02:40:54.157Z,3.83
2023-04-27T02:43:22.938Z,5.33
2023-04-27T02:45:50.209Z,4.40
2023-04-27T02:48:17.639Z,4.10
2023-04-27T02:50:45.392Z,4.57
2023-04-27T02:53:12.808Z,4.03
2023-04-27T02:55:45.722Z,4.23
2023-04-27T02:58:13.039Z,4.30
2023-04-27T03:00:41.742Z,3.97
2023-04-27T03:03:09.639Z,4.70
2023-04-27T03:05:37.088Z,4.37
2023-04-27T03:08:04.667Z,3.83
2023-04-27T03:10:31.974Z,4.07
2023-04-27T03:12:59.196Z,4.60
2023-04-27T03:15:26.445Z,4.20
2023-04-27T03:50:01.624Z,4.23
2023-04-27T03:52:53.906Z,4.27
2023-04-27T03:55:25.016Z,4.40
2023-04-27T03:57:53.627Z,4.13
2023-04-27T04:00:21.777Z,3.93
2023-04-27T04:02:49.707Z,4.13
2023-04-27T04:05:19.106Z,4.10
2023-04-27T04:07:46.429Z,4.20
2023-04-27T04:10:14.059Z,4.23
2023-04-27T04:12:41.799Z,3.80
2023-04-27T04:15:09.438Z,3.40
2023-04-27T04:17:37.368Z,4.00
2023-04-27T04:20:04.820Z,4.67
2023-04-27T04:22:35.800Z,4.20
2023-04-27T04:25:15.493Z,4.20
2023-04-27T04:27:42.826Z,4.20
2023-04-27T04:30:10.621Z,4.20
2023-04-27T04:32:38.171Z,4.30
2023-04-27T04:35:07.302Z,3.93
2023-04-27T04:37:36.307Z,4.27
2023-04-27T04:40:07.423Z,4.07
2023-04-27T04:42:35.016Z,4.50
2023-04-27T04:45:02.722Z,5.00
2023-04-27T04:47:30.414Z,4.87
2023-04-27T04:49:58.425Z,4.20
2023-04-27T04:56:10.130Z,4.33
2023-04-27T04:58:37.438Z,4.20
2023-04-27T05:01:05.456Z,4.63
2023-04-27T05:03:33.009Z,5.13
2023-04-27T05:06:00.726Z,4.87
2023-04-27T05:08:28.308Z,4.50
2023-04-27T05:27:44.418Z,4.93
2023-04-27T05:30:12.298Z,4.27
2023-04-27T05:32:39.726Z,5.10
2023-04-27T05:35:07.251Z,4.50
2023-04-27T05:37:34.512Z,4.13
2023-04-27T06:02:10.033Z,4.80
2023-04-27T06:04:37.493Z,4.90
2023-04-27T06:07:08.819Z,5.20
2023-04-27T06:09:36.042Z,5.10
2023-04-27T06:12:03.309Z,4.60
2023-04-27T06:14:42.780Z,5.40
2023-04-27T06:17:11.592Z,4.47
2023-04-27T06:19:39.144Z,4.17
2023-04-27T06:22:06.558Z,4.67
2023-04-27T06:24:33.856Z,4.90
2023-04-27T06:27:03.778Z,4.13
2023-04-27T06:32:38.333Z,6.67
2023-04-27T06:35:06.051Z,4.90
2023-04-27T06:37:33.335Z,4.10
2023-04-27T06:40:00.625Z,4.93
2023-04-27T06:42:27.878Z,4.90
2023-04-27T06:44:55.179Z,4.70
2023-04-27T06:47:22.560Z,4.77
2023-04-27T06:49:51.372Z,4.50
2023-04-27T06:52:18.645Z,4.83
2023-04-27T06:54:45.909Z,4.57
2023-04-27T06:57:13.516Z,4.20
2023-04-27T06:59:40.735Z,5.33
2023-04-27T07:02:08.262Z,4.33
2023-04-27T07:04:35.504Z,3.90
2023-04-27T07:07:04.184Z,4.30
2023-04-27T07:09:31.835Z,4.50
2023-04-27T07:11:59.296Z,4.77
2023-04-27T07:14:26.663Z,4.90
2023-04-27T07:16:54.315Z,3.80
2023-04-27T07:19:21.597Z,4.30
2023-04-27T07:21:48.908Z,4.33
2023-04-27T07:24:17.807Z,3.57
2023-04-27T07:26:45.038Z,3.87
2023-04-27T07:29:25.620Z,3.83
2023-04-27T07:31:54.171Z,3.43
2023-04-27T07:34:21.444Z,3.67
2023-04-27T07:36:48.669Z,3.57
2023-04-27T07:39:16.044Z,3.50
2023-04-27T07:41:44.777Z,3.60
2023-04-27T07:44:12.003Z,3.67
2023-04-27T07:46:39.293Z,4.07
2023-04-27T07:49:06.505Z,3.53
2023-04-27T07:51:33.799Z,3.27
2023-04-27T07:54:01.112Z,3.40
2023-04-27T07:56:28.424Z,3.37
2023-04-27T07:58:56.968Z,3.20
2023-04-27T08:01:24.223Z,3.63
2023-04-27T08:03:51.956Z,3.43
2023-04-27T08:06:19.832Z,3.13
2023-04-27T08:08:47.201Z,3.73
2023-04-27T08:11:14.448Z,2.83
2023-04-27T08:13:41.754Z,3.00
2023-04-27T08:16:10.417Z,3.07
2023-04-27T08:18:37.673Z,3.60
2023-04-27T08:21:06.244Z,2.80
2023-04-27T08:23:33.496Z,3.60
2023-04-27T08:26:00.705Z,2.90
2023-04-27T08:28:28.100Z,3.70
2023-04-27T08:30:55.582Z,2.70
2023-04-27T08:33:24.225Z,3.10
2023-04-27T08:35:51.494Z,2.67
2023-04-27T08:38:18.899Z,3.50
2023-04-27T08:40:46.214Z,3.20
2023-04-27T08:43:13.483Z,3.10
2023-04-27T08:45:48.232Z,2.70
2023-04-27T08:48:15.635Z,2.77
2023-04-27T08:50:45.529Z,2.77
2023-04-27T08:53:22.386Z,3.50
2023-04-27T08:55:50.009Z,2.87
2023-04-27T08:58:17.265Z,2.50
2023-04-27T09:00:44.887Z,3.17
2023-04-27T09:03:19.653Z,3.00
2023-04-27T09:06:00.564Z,2.73
2023-04-27T09:08:41.792Z,3.00
2023-04-27T09:11:09.171Z,3.53
2023-04-27T09:13:36.659Z,3.63
2023-04-27T09:16:04.233Z,3.07
2023-04-27T09:18:32.207Z,3.10
2023-04-27T09:26:38.182Z,3.03
2023-04-27T09:29:06.885Z,2.60
2023-04-27T09:31:34.140Z,3.50
2023-04-27T09:34:01.504Z,3.10
2023-04-27T09:36:28.895Z,3.20
2023-04-27T09:38:56.333Z,3.20
2023-04-27T09:41:23.633Z,2.60
2023-04-27T09:43:51.330Z,4.23
2023-04-27T09:46:20.514Z,3.33
2023-04-27T09:48:47.964Z,3.67
2023-04-27T09:51:15.766Z,3.23
2023-04-27T09:53:47.090Z,3.87
2023-04-27T09:56:25.517Z,2.97
2023-04-27T09:58:59.725Z,3.10
2023-04-27T10:01:31.432Z,3.63
2023-04-27T10:04:06.212Z,2.83
2023-04-27T10:06:44.293Z,3.27
2023-04-27T10:09:11.829Z,3.50
2023-04-27T10:11:40.020Z,3.50
2023-04-27T10:14:08.314Z,3.40
2023-04-27T10:16:44.654Z,3.03
2023-04-27T10:30:36.466Z,3.67
2023-04-27T10:33:07.071Z,3.67
2023-04-27T10:35:35.124Z,3.40
2023-04-27T10:38:09.613Z,3.10
2023-04-27T10:40:36.960Z,3.30
2023-04-27T10:43:10.671Z,3.73
2023-04-27T10:45:38.141Z,4.00
2023-04-27T10:48:07.115Z,3.20
2023-04-27T10:50:34.745Z,4.03
2023-04-27T10:53:02.400Z,3.77
2023-04-27T10:55:30.002Z,3.40
2023-04-27T10:57:57.855Z,3.87
2023-04-27T11:00:25.808Z,4.57
2023-04-27T11:02:53.562Z,3.93
2023-04-27T11:05:22.761Z,3.13
2023-04-27T11:07:50.124Z,3.03
2023-04-27T11:10:18.107Z,4.13
2023-04-27T11:12:45.326Z,4.13
2023-04-27T11:15:17.729Z,3.37
2023-04-27T11:17:45.171Z,3.20
2023-04-27T11:20:12.440Z,3.70
2023-04-27T11:22:47.512Z,4.30
2023-04-27T11:25:28.181Z,3.83
2023-04-27T11:46:14.782Z,5.37
2023-04-27T11:48:42.126Z,4.17
2023-04-27T11:51:11.439Z,3.97
2023-04-27T11:53:39.125Z,3.83
2023-04-27T11:59:41.195Z,4.60
2023-04-27T12:02:09.954Z,4.60
2023-04-27T12:04:37.867Z,4.33
2023-04-27T12:07:05.293Z,4.43
2023-04-27T12:09:32.565Z,4.20
2023-04-27T12:11:59.794Z,4.30
2023-04-27T12:14:30.160Z,4.87
2023-04-27T12:16:57.468Z,4.63
2023-04-27T12:19:26.509Z,4.13
2023-04-27T12:21:54.101Z,4.40
2023-04-27T12:24:27.598Z,4.80
2023-04-27T12:27:03.408Z,4.80
2023-04-27T12:29:31.058Z,4.33
2023-04-27T12:31:59.564Z,4.70
2023-04-27T12:34:28.206Z,5.20
2023-04-27T12:36:55.565Z,4.30
2023-04-27T12:39:23.521Z,4.63
2023-04-27T12:41:50.834Z,4.77
2023-04-27T12:44:18.892Z,4.67
2023-04-27T12:46:46.677Z,4.23
2023-04-27T12:49:14.506Z,5.03
2023-04-27T12:51:43.380Z,4.57
2023-04-27T12:54:11.171Z,3.30
2023-04-27T12:56:38.612Z,4.77
2023-04-27T12:59:05.938Z,4.90
2023-04-27T13:01:33.246Z,4.83
2023-04-27T13:04:01.279Z,4.77
2023-04-27T13:06:28.907Z,4.60
2023-04-27T13:08:57.986Z,4.53
2023-04-27T13:11:25.269Z,5.07
2023-04-27T13:13:52.942Z,4.10
2023-04-27T13:16:20.652Z,4.57
2023-04-27T13:18:47.929Z,4.80
2023-04-27T13:21:15.187Z,5.47
2023-04-27T13:23:42.758Z,5.30
2023-04-27T13:26:11.589Z,5.13
2023-04-27T13:28:57.933Z,4.80
2023-04-27T13:31:25.320Z,4.90
2023-04-27T13:33:54.254Z,4.90
2023-04-27T13:36:21.551Z,5.53
2023-04-27T13:39:23.552Z,4.80
2023-04-27T13:48:24.130Z,4.77
2023-04-27T13:50:52.015Z,4.93
2023-04-27T13:53:19.505Z,5.30
2023-04-27T13:55:46.853Z,4.83
2023-04-27T13:58:19.268Z,5.60
2023-04-27T14:00:46.751Z,5.77
2023-04-27T14:03:14.254Z,4.67
2023-04-27T14:05:43.006Z,5.63
2023-04-27T14:08:12.465Z,4.97
2023-04-27T14:10:40.556Z,5.57
2023-04-27T14:13:07.876Z,5.80
2023-04-27T14:15:35.140Z,4.93
2023-04-27T14:18:02.442Z,5.53
2023-04-27T14:20:29.934Z,4.50
2023-04-27T14:22:58.746Z,4.40
2023-04-27T14:25:26.017Z,4.30
2023-04-27T14:30:42.387Z,4.73
2023-04-27T14:33:09.710Z,5.03
2023-04-27T14:35:37.041Z,4.70
2023-04-27T14:45:09.428Z,5.20
2023-04-27T14:47:38.173Z,4.60
2023-04-27T14:50:06.034Z,4.33
2023-04-27T14:52:33.715Z,4.70
2023-04-27T14:55:01.494Z,5.00
2023-04-27T14:57:37.916Z,4.37
2023-04-27T15:00:05.768Z,5.10
2023-04-27T15:02:34.239Z,4.70
2023-04-27T15:05:03.216Z,4.30
2023-04-27T15:07:30.547Z,4.53
2023-04-27T15:10:10.351Z,4.07
2023-04-27T15:12:37.924Z,4.13
2023-04-27T15:15:06.533Z,4.67
2023-04-27T15:17:35.344Z,4.10
2023-04-27T15:20:04.696Z,4.37
2023-04-27T15:22:32.207Z,4.37
2023-04-27T15:24:59.677Z,4.23
2023-04-27T16:59:10.562Z,5.00
2023-04-27T17:01:39.613Z,5.33
2023-04-27T17:04:07.737Z,4.97
2023-04-27T17:06:35.264Z,5.40
2023-04-27T17:09:02.518Z,5.10
2023-04-27T17:15:18.657Z,5.43
2023-04-27T17:17:47.949Z,5.67
2023-04-27T17:20:15.247Z,5.40
2023-04-27T17:22:42.463Z,5.27
2023-04-27T17:25:09.991Z,5.33
2023-04-27T17:27:37.263Z,4.60
2023-04-27T17:30:04.855Z,4.60
2023-04-27T17:32:32.340Z,4.73
2023-04-27T17:35:01.354Z,5.10
2023-04-27T17:37:28.698Z,4.97
2023-04-27T17:39:55.911Z,4.10
2023-04-27T17:42:23.233Z,5.30
2023-04-27T17:44:50.704Z,4.30
2023-04-27T17:47:17.956Z,5.20
2023-04-27T17:49:45.200Z,4.83
2023-04-27T17:52:14.114Z,4.73
2023-04-27T17:54:41.419Z,4.40
2023-04-27T17:57:08.986Z,5.30
2023-04-27T17:59:37.087Z,5.03
2023-04-27T18:04:55.843Z,4.87
2023-04-27T18:07:24.901Z,4.73
2023-04-27T18:09:52.100Z,4.83
2023-04-27T18:12:19.623Z,3.93
2023-04-27T18:14:47.026Z,4.50
2023-04-27T18:35:05.049Z,3.57
2023-04-27T18:37:32.411Z,4.20
2023-04-27T18:40:01.611Z,4.27
2023-04-27T18:42:29.133Z,4.90
2023-04-27T18:47:46.670Z,4.07
2023-04-27T18:50:15.408Z,4.57
2023-04-27T18:52:42.839Z,4.60
2023-04-27T18:55:10.893Z,4.00
2023-04-27T18:57:38.611Z,4.70
2023-04-27T19:00:07.444Z,4.80
2023-04-27T19:02:38.944Z,4.10
2023-04-27T19:05:12.237Z,4.33
2023-04-27T19:07:42.585Z,4.47
2023-04-27T19:10:13.637Z,5.67
2023-04-27T19:13:01.841Z,4.37
2023-04-27T19:15:29.162Z,4.73
2023-04-27T19:32:25.540Z,4.17
2023-04-27T20:22:23.165Z,4.93
2023-04-27T20:24:56.095Z,4.70
2023-04-27T20:27:26.412Z,4.77
2023-04-27T20:29:56.368Z,4.87
2023-04-27T20:32:26.245Z,4.63
2023-04-27T20:34:54.592Z,4.50
2023-04-27T20:37:23.268Z,4.33
2023-04-27T20:39:50.618Z,4.40
2023-04-27T20:42:18.126Z,5.17
2023-04-27T20:44:46.682Z,4.00
2023-04-27T20:47:14.160Z,4.23
2023-04-27T20:49:51.248Z,4.43
2023-04-27T20:52:40.528Z,4.63
2023-04-27T20:55:07.870Z,4.20
2023-04-27T20:57:35.267Z,4.27
2023-04-27T21:00:02.595Z,4.87
2023-04-27T21:02:30.041Z,4.00
2023-04-27T21:04:57.803Z,4.07
2023-04-27T21:24:25.776Z,4.33
2023-04-27T21:26:53.056Z,4.33
2023-04-27T21:40:40.050Z,5.33
2023-04-27T21:43:07.334Z,3.67
2023-04-27T21:45:36.059Z,4.70
2023-04-27T21:48:03.536Z,4.00
2023-04-27T21:50:30.964Z,4.60
2023-04-27T21:52:58.301Z,4.60
2023-04-27T21:55:26.211Z,4.63
2023-04-27T21:57:55.004Z,4.07
2023-04-27T22:00:22.353Z,4.70
2023-04-27T22:05:51.996Z,4.73
2023-04-27T22:08:19.393Z,4.87
2023-04-27T22:10:46.674Z,4.23
2023-04-27T22:24:32.200Z,4.80
2023-04-27T22:27:04.168Z,5.00
2023-04-27T22:29:31.544Z,4.67
2023-04-27T22:31:59.147Z,4.00
2023-04-27T22:34:26.480Z,5.50
2023-04-27T22:36:54.151Z,5.17
2023-04-27T22:39:21.826Z,4.77
2023-04-27T22:41:50.499Z,4.80
2023-04-27T22:44:17.944Z,5.33
2023-04-27T22:46:46.727Z,4.97
2023-04-27T22:49:14.006Z,5.40
2023-04-27T22:51:45.687Z,4.57
2023-04-27T22:54:25.189Z,5.03
2023-04-27T22:56:55.469Z,5.20
2023-04-27T22:59:22.748Z,4.83
2023-04-27T23:01:50.413Z,5.37
2023-04-27T23:04:17.861Z,5.37
2023-04-27T23:06:45.543Z,4.93
2023-04-27T23:09:12.941Z,4.90
2023-04-27T23:11:40.261Z,3.87
2023-04-27T23:14:08.846Z,6.20
2023-04-27T23:16:36.077Z,5.37
2023-04-27T23:19:03.576Z,5.27
2023-04-27T23:21:31.284Z,5.27
2023-04-27T23:23:58.502Z,5.10
2023-04-27T23:26:25.761Z,5.70
2023-04-27T23:28:52.999Z,5.37
2023-04-27T23:31:23.194Z,5.37
2023-04-27T23:33:50.652Z,5.83
2023-04-27T23:40:15.737Z,5.23
2023-04-27T23:42:43.010Z,4.90
2023-04-27T23:45:10.740Z,5.17
2023-04-27T23:47:39.411Z,6.00
2023-04-27T23:50:07.108Z,5.87
2023-04-27T23:52:34.313Z,5.77
2023-04-27T23:55:04.997Z,5.07
